Time;durP1;ratioP1;P1;durP2;ratioP2;P2;SDS_P1;SDS_P2;PMS_P1;PMS_P2;Temp;Humidity;BMP_temperature;BMP_pressure;BME280_temperature;BME280_humidity;BME280_pressure;Samples;Min_cycle;Max_cycle;Signal;HPM_P1;HPM_P2
2022/07/14 04:02:17;;;;;;;4.60;2.63;;;15.40;96.30;;;;;;5176663;23;20489;-68
2022/07/14 04:04:42;;;;;;;2.30;2.07;;;15.40;96.30;;;;;;4994193;28;20531;-68
2022/07/14 04:07:08;;;;;;;6.50;2.70;;;15.50;96.30;;;;;;4994083;28;20169;-68
2022/07/14 04:09:34;;;;;;;4.43;2.20;;;15.60;96.30;;;;;;4993538;28;20256;-68
2022/07/14 04:11:59;;;;;;;3.47;2.40;;;15.50;96.30;;;;;;4992436;28;20699;-68
2022/07/14 04:14:25;;;;;;;9.30;2.50;;;15.50;96.30;;;;;;4994491;28;20413;-68
2022/07/14 04:16:51;;;;;;;5.73;2.10;;;15.60;96.30;;;;;;4994658;28;20185;-68
2022/07/14 04:19:16;;;;;;;11.10;2.57;;;15.70;96.30;;;;;;4993353;28;20213;-68
2022/07/14 04:21:42;;;;;;;15.10;2.70;;;15.70;96.30;;;;;;4993567;28;20201;-69
2022/07/14 04:24:07;;;;;;;3.70;2.60;;;15.70;96.30;;;;;;4994250;28;20209;-68
2022/07/14 04:26:33;;;;;;;3.43;2.30;;;15.60;96.30;;;;;;4994604;28;20181;-68
2022/07/14 04:28:59;;;;;;;2.80;2.40;;;15.60;96.30;;;;;;4993209;28;20178;-68
2022/07/14 04:39:10;;;;;;;3.30;2.43;;;16.60;96.30;;;;;;5139162;23;20503;-68
2022/07/14 04:41:36;;;;;;;3.67;2.37;;;16.80;96.30;;;;;;5012860;28;20432;-68
2022/07/14 04:44:02;;;;;;;6.40;2.20;;;17.10;96.30;;;;;;5013594;28;20625;-68
2022/07/14 04:46:28;;;;;;;2.73;2.33;;;17.40;96.30;;;;;;5013537;28;20173;-68
2022/07/14 04:54:13;;;;;;;3.93;2.50;;;19.10;96.30;;;;;;4933268;23;20477;-69
2022/07/14 04:56:38;;;;;;;6.63;1.67;;;19.40;96.30;;;;;;4974518;28;20452;-68
2022/07/14 04:59:04;;;;;;;4.17;1.90;;;19.30;96.30;;;;;;4973639;28;20212;-68
2022/07/14 05:01:29;;;;;;;2.93;2.23;;;19.10;96.30;;;;;;4984059;28;20252;-68
2022/07/14 05:03:55;;;;;;;2.33;2.13;;;18.80;96.30;;;;;;4973966;28;20205;-69
2022/07/14 05:06:21;;;;;;;1.90;1.70;;;18.80;96.30;;;;;;4974046;28;20829;-68
2022/07/14 05:08:46;;;;;;;13.37;2.40;;;18.90;96.30;;;;;;4973725;28;20206;-68
2022/07/14 05:13:47;;;;;;;3.33;1.93;;;18.80;96.30;;;;;;5036103;23;20231;-68
2022/07/14 05:16:12;;;;;;;4.43;2.53;;;18.70;96.30;;;;;;4992893;28;20432;-68
2022/07/14 05:18:38;;;;;;;4.07;2.20;;;18.60;96.30;;;;;;4991847;28;20236;-69
2022/07/14 05:21:03;;;;;;;3.17;2.40;;;18.60;96.30;;;;;;4987801;28;20202;-68
2022/07/14 05:23:29;;;;;;;5.00;2.50;;;18.50;96.30;;;;;;4972922;28;20803;-68
2022/07/14 05:25:54;;;;;;;7.00;2.40;;;18.40;96.30;;;;;;4968641;28;20186;-68
2022/07/14 05:28:20;;;;;;;7.83;1.90;;;18.40;96.30;;;;;;4963755;28;20193;-69
2022/07/14 05:30:45;;;;;;;4.33;1.90;;;18.40;96.30;;;;;;4984057;28;20209;-68
2022/07/14 05:33:11;;;;;;;3.40;2.10;;;18.50;96.30;;;;;;4977759;28;20210;-68
2022/07/14 05:35:37;;;;;;;3.83;2.13;;;18.70;96.30;;;;;;4992254;28;20189;-68
2022/07/14 05:38:02;;;;;;;2.30;1.73;;;18.80;96.30;;;;;;4991889;28;20288;-69
2022/07/14 05:40:27;;;;;;;6.27;2.37;;;19.00;96.30;;;;;;4985506;28;20178;-68
2022/07/14 05:42:53;;;;;;;2.60;2.00;;;19.10;96.30;;;;;;4981550;28;20181;-77
2022/07/14 05:45:18;;;;;;;3.67;2.37;;;19.10;96.30;;;;;;4990262;28;20252;-76
2022/07/14 05:47:44;;;;;;;6.03;2.50;;;19.10;96.30;;;;;;4990588;28;20198;-80
2022/07/14 05:50:10;;;;;;;2.43;1.83;;;19.00;96.30;;;;;;4978902;28;20265;-80
2022/07/14 05:52:35;;;;;;;3.97;2.10;;;19.00;96.30;;;;;;4978622;28;20256;-80
2022/07/14 05:55:01;;;;;;;10.20;2.43;;;18.80;96.30;;;;;;4986455;28;20816;-80
2022/07/14 05:57:27;;;;;;;3.13;2.10;;;18.70;96.30;;;;;;4984983;28;20197;-80
2022/07/14 05:59:52;;;;;;;4.27;2.50;;;18.60;96.30;;;;;;4982265;28;20205;-76
2022/07/14 06:02:18;;;;;;;4.00;2.20;;;18.60;96.30;;;;;;4983086;28;20600;-76
2022/07/14 06:04:43;;;;;;;4.30;2.63;;;18.50;96.30;;;;;;4985267;28;20186;-77
2022/07/14 06:07:09;;;;;;;10.77;2.40;;;18.50;96.30;;;;;;4993913;28;20695;-79
2022/07/14 06:09:36;;;;;;;6.13;2.57;;;18.50;96.30;;;;;;4984745;28;20197;-79
2022/07/14 06:12:05;;;;;;;2.70;2.00;;;18.60;96.30;;;;;;4971631;28;20323;-79
2022/07/14 06:14:31;;;;;;;3.23;2.00;;;18.60;96.30;;;;;;4975845;28;20505;-76
2022/07/14 06:16:56;;;;;;;5.23;2.67;;;18.60;96.30;;;;;;4973014;28;20552;-75
2022/07/14 06:19:22;;;;;;;2.43;2.10;;;18.70;96.30;;;;;;4971274;28;20202;-76
2022/07/14 06:21:47;;;;;;;3.60;2.37;;;18.60;96.30;;;;;;4971850;28;20210;-75
2022/07/14 06:24:13;;;;;;;2.70;2.23;;;18.60;96.30;;;;;;4976401;28;20316;-75
2022/07/14 06:26:38;;;;;;;3.40;2.97;;;18.50;96.30;;;;;;4976792;28;20653;-76
2022/07/14 06:29:04;;;;;;;3.13;2.83;;;18.60;96.30;;;;;;4992158;28;20549;-80
2022/07/14 06:31:33;;;;;;;2.40;2.20;;;18.70;96.30;;;;;;4992250;28;20204;-75
2022/07/14 06:34:00;;;;;;;3.53;2.53;;;18.70;96.30;;;;;;4992271;28;20258;-76
2022/07/14 06:36:25;;;;;;;4.73;2.77;;;18.80;96.30;;;;;;4992338;28;20405;-80
2022/07/14 06:38:51;;;;;;;4.67;3.17;;;18.90;96.30;;;;;;4995499;28;20547;-76
2022/07/14 06:41:19;;;;;;;4.80;2.80;;;19.10;96.30;;;;;;4994358;28;20248;-75
2022/07/14 06:43:45;;;;;;;4.23;3.00;;;19.10;96.30;;;;;;4995703;28;20178;-78
2022/07/14 06:46:14;;;;;;;5.93;3.60;;;19.10;96.30;;;;;;4995768;28;20420;-76
2022/07/14 06:48:40;;;;;;;7.47;2.60;;;19.20;96.30;;;;;;4995430;28;20248;-75
2022/07/14 06:51:05;;;;;;;5.50;2.70;;;19.00;96.30;;;;;;4995403;28;20952;-80
2022/07/14 06:53:31;;;;;;;2.93;2.50;;;18.90;96.30;;;;;;4995502;28;20582;-79
2022/07/14 06:55:56;;;;;;;6.13;3.27;;;18.90;96.30;;;;;;4994168;28;20182;-75
2022/07/14 06:58:22;;;;;;;4.33;2.87;;;18.90;96.30;;;;;;4995223;28;20205;-75
2022/07/14 07:00:47;;;;;;;8.60;2.80;;;18.90;96.30;;;;;;4995287;28;20284;-78
2022/07/14 07:03:13;;;;;;;2.93;2.60;;;18.90;96.30;;;;;;4995408;28;20182;-75
2022/07/14 07:08:24;;;;;;;5.00;2.63;;;18.90;96.30;;;;;;4995443;28;20442;-80
2022/07/14 07:10:50;;;;;;;6.37;2.80;;;19.10;96.30;;;;;;4995125;28;20527;-76
2022/07/14 07:13:16;;;;;;;4.33;2.50;;;19.10;96.30;;;;;;4994939;28;20201;-75
2022/07/14 07:15:41;;;;;;;4.17;2.70;;;19.20;96.30;;;;;;4995061;28;21088;-76
2022/07/14 07:18:07;;;;;;;5.10;2.70;;;19.20;96.30;;;;;;4994868;28;20702;-76
2022/07/14 07:20:34;;;;;;;3.60;2.50;;;19.40;96.30;;;;;;4994957;28;20281;-76
2022/07/14 07:23:00;;;;;;;5.20;3.03;;;19.50;96.30;;;;;;4995142;28;20413;-75
2022/07/14 07:25:26;;;;;;;4.53;2.77;;;19.60;96.30;;;;;;4979776;28;20422;-80
2022/07/14 07:27:52;;;;;;;4.03;2.40;;;19.70;96.30;;;;;;4975259;28;20425;-79
2022/07/14 07:30:18;;;;;;;3.80;2.57;;;19.80;96.30;;;;;;4975426;28;21071;-75
2022/07/14 07:32:43;;;;;;;3.83;2.50;;;19.70;96.30;;;;;;4975268;28;20214;-76
2022/07/14 07:35:09;;;;;;;8.50;3.23;;;20.60;96.30;;;;;;4975534;28;20550;-78
2022/07/14 07:37:34;;;;;;;3.23;2.07;;;22.70;96.30;;;;;;4973812;28;20210;-80
2022/07/14 07:40:00;;;;;;;2.93;2.73;;;24.20;94.80;;;;;;4973953;28;20273;-76
2022/07/14 07:42:26;;;;;;;5.37;2.70;;;24.30;91.80;;;;;;4974948;28;20194;-76
2022/07/14 07:44:52;;;;;;;2.50;2.30;;;24.10;94.20;;;;;;4975130;28;20177;-76
2022/07/14 07:47:17;;;;;;;6.30;2.50;;;23.90;92.20;;;;;;4974827;28;20182;-76
2022/07/14 07:49:43;;;;;;;3.67;2.40;;;24.00;94.60;;;;;;4974821;28;20174;-80
2022/07/14 07:52:08;;;;;;;7.43;2.73;;;24.30;94.30;;;;;;4974911;28;20186;-76
2022/07/14 07:54:34;;;;;;;2.30;2.10;;;24.60;90.20;;;;;;4974955;28;20523;-76
2022/07/14 07:57:00;;;;;;;4.87;2.20;;;24.20;88.80;;;;;;4974947;28;20220;-77
2022/07/14 07:59:25;;;;;;;3.43;2.20;;;24.20;92.20;;;;;;4973315;28;20677;-79
2022/07/14 08:01:51;;;;;;;5.40;2.43;;;24.10;91.30;;;;;;4974740;28;20200;-76
2022/07/14 08:04:17;;;;;;;4.40;1.70;;;23.30;91.50;;;;;;4974775;28;20174;-76
2022/07/14 08:06:43;;;;;;;3.40;2.20;;;22.80;95.40;;;;;;4974791;28;20249;-76
2022/07/14 08:09:12;;;;;;;2.73;2.20;;;22.70;95.70;;;;;;4974660;28;20210;-76
2022/07/14 08:11:40;;;;;;;3.40;2.53;;;22.60;96.30;;;;;;4974540;28;20198;-77
2022/07/14 08:14:06;;;;;;;2.37;2.17;;;22.50;96.30;;;;;;4972832;28;20428;-74
2022/07/14 08:16:31;;;;;;;2.40;2.10;;;22.20;96.30;;;;;;4967526;28;20438;-75
2022/07/14 08:18:57;;;;;;;9.53;1.90;;;21.90;96.30;;;;;;4974366;28;20202;-76
2022/07/14 08:21:23;;;;;;;2.27;2.00;;;21.90;96.30;;;;;;4967719;28;20359;-79
2022/07/14 08:23:50;;;;;;;3.37;2.17;;;22.00;96.30;;;;;;4955113;28;20167;-76
2022/07/14 08:26:16;;;;;;;2.10;1.83;;;22.20;96.30;;;;;;4955055;28;20969;-77
2022/07/14 08:28:41;;;;;;;2.23;1.77;;;22.30;96.30;;;;;;4954932;28;20414;-76
2022/07/14 08:31:07;;;;;;;3.17;2.20;;;22.30;96.30;;;;;;4955324;28;20203;-76
2022/07/14 08:33:32;;;;;;;3.50;1.90;;;22.30;96.30;;;;;;4955292;28;20616;-79
2022/07/14 08:35:58;;;;;;;3.63;2.10;;;22.30;96.30;;;;;;4955027;28;20650;-76
2022/07/14 08:38:23;;;;;;;3.53;2.20;;;22.20;95.40;;;;;;4955121;28;20293;-77
2022/07/14 08:40:49;;;;;;;2.60;2.13;;;22.20;96.00;;;;;;4980857;28;20198;-79
2022/07/14 08:43:15;;;;;;;1.90;1.80;;;22.20;95.70;;;;;;4990736;28;20266;-77
2022/07/14 08:45:42;;;;;;;3.20;2.23;;;22.40;96.30;;;;;;4981773;28;20629;-78
2022/07/14 08:48:11;;;;;;;4.00;2.17;;;22.40;95.00;;;;;;4988447;28;20419;-77
2022/07/14 08:50:37;;;;;;;2.63;1.93;;;22.60;96.30;;;;;;4981245;28;20416;-79
2022/07/14 08:53:03;;;;;;;7.33;2.43;;;23.20;94.70;;;;;;4984006;28;20424;-77
2022/07/14 08:55:30;;;;;;;2.93;1.97;;;23.50;92.30;;;;;;4973954;28;20192;-76
2022/07/14 08:57:56;;;;;;;4.37;2.23;;;23.60;91.00;;;;;;4973549;28;20469;-77
2022/07/14 09:00:21;;;;;;;7.73;2.47;;;22.80;93.70;;;;;;4973130;28;20793;-78
2022/07/14 09:02:50;;;;;;;3.13;2.27;;;22.70;96.20;;;;;;4973746;28;20178;-78
2022/07/14 09:05:16;;;;;;;5.73;2.00;;;23.00;96.30;;;;;;4973775;28;20209;-77
2022/07/14 09:07:42;;;;;;;4.10;2.60;;;23.00;96.30;;;;;;4973441;28;20414;-77
2022/07/14 09:10:10;;;;;;;2.43;2.10;;;23.40;92.40;;;;;;4986201;28;20429;-79
2022/07/14 09:12:37;;;;;;;4.30;1.90;;;23.20;95.20;;;;;;4992765;28;20225;-79
2022/07/14 09:18:11;;;;;;;2.67;2.30;;;23.90;94.60;;;;;;4961663;28;20460;-79
2022/07/14 09:20:38;;;;;;;2.20;1.80;;;24.20;90.90;;;;;;4992697;28;20449;-79
2022/07/14 09:23:04;;;;;;;2.57;2.00;;;24.20;92.00;;;;;;4975532;28;20424;-79
2022/07/14 09:25:34;;;;;;;2.60;1.77;;;24.20;93.90;;;;;;4976315;28;20178;-79
2022/07/14 09:28:00;;;;;;;3.63;2.23;;;24.40;94.80;;;;;;4976213;28;20420;-80
2022/07/14 09:30:26;;;;;;;1.97;1.77;;;24.50;93.00;;;;;;4979807;28;20432;-79
2022/07/14 09:32:56;;;;;;;3.17;2.40;;;24.00;93.10;;;;;;4984399;28;20504;-79
2022/07/14 09:35:25;;;;;;;3.70;2.27;;;23.70;94.50;;;;;;4994267;28;20591;-79
2022/07/14 09:37:52;;;;;;;4.43;2.20;;;23.60;92.10;;;;;;4994668;28;20486;-79
2022/07/14 09:40:25;;;;;;;2.97;2.27;;;23.70;91.90;;;;;;4995312;28;20432;-79
2022/07/14 09:42:54;;;;;;;3.53;2.37;;;23.70;94.80;;;;;;4988264;28;20425;-79
2022/07/14 09:45:23;;;;;;;4.73;2.30;;;23.70;93.40;;;;;;4986362;28;20793;-80
2022/07/14 09:48:20;;;;;;;2.77;2.03;;;23.60;93.80;;;;;;4984230;28;21027;-79
2022/07/14 09:50:47;;;;;;;3.83;2.47;;;23.70;91.10;;;;;;4953077;28;20614;-80
2022/07/14 09:53:31;;;;;;;2.47;2.13;;;23.70;94.90;;;;;;4989866;28;20504;-80
2022/07/14 09:55:56;;;;;;;2.47;1.97;;;23.80;95.80;;;;;;4993161;28;20896;-80
2022/07/14 09:58:26;;;;;;;5.10;2.10;;;23.70;92.10;;;;;;4986318;28;20475;-80
2022/07/14 10:01:06;;;;;;;5.60;2.67;;;23.50;93.50;;;;;;4983086;28;20198;-80
2022/07/14 10:03:34;;;;;;;4.97;2.23;;;23.50;93.20;;;;;;4988998;28;20418;-80
2022/07/14 10:06:01;;;;;;;5.47;2.80;;;24.00;94.50;;;;;;4981530;28;20503;-78
2022/07/14 10:08:29;;;;;;;3.77;2.33;;;24.10;92.60;;;;;;4976533;28;20428;-80
2022/07/14 10:10:57;;;;;;;2.60;2.40;;;24.00;90.40;;;;;;4979433;28;20537;-81
2022/07/14 10:13:24;;;;;;;4.07;2.40;;;23.60;91.70;;;;;;4990495;28;20440;-81
2022/07/14 10:15:52;;;;;;;2.63;2.43;;;23.70;91.90;;;;;;4997919;28;20787;-80
2022/07/14 10:18:20;;;;;;;3.73;2.13;;;23.40;92.50;;;;;;4992804;28;20554;-81
2022/07/14 10:20:47;;;;;;;2.57;2.33;;;23.20;93.60;;;;;;4996018;28;20432;-76
2022/07/14 10:23:14;;;;;;;2.27;2.07;;;23.50;94.00;;;;;;4976779;28;20430;-74
2022/07/14 10:25:41;;;;;;;3.40;2.50;;;23.70;94.50;;;;;;4966907;28;20412;-73
2022/07/14 10:28:07;;;;;;;4.93;2.40;;;24.10;92.50;;;;;;4995287;28;20487;-75
2022/07/14 10:30:58;;;;;;;2.77;2.53;;;24.30;93.90;;;;;;4978177;28;20418;-79
2022/07/14 10:33:40;;;;;;;6.67;2.57;;;23.90;90.50;;;;;;4991995;28;20460;-79
2022/07/14 10:36:17;;;;;;;3.57;2.30;;;24.10;92.40;;;;;;4977735;28;20985;-79
2022/07/14 10:39:08;;;;;;;5.50;2.17;;;23.90;91.70;;;;;;4976851;28;20960;-79
2022/07/14 10:42:07;;;;;;;3.47;2.40;;;24.10;91.50;;;;;;4976909;28;20937;-78
2022/07/14 10:44:36;;;;;;;4.03;2.57;;;24.10;92.70;;;;;;4976979;28;20471;-79
2022/07/14 10:47:13;;;;;;;5.33;2.50;;;23.70;91.60;;;;;;4977113;28;20405;-79
2022/07/14 10:50:12;;;;;;;2.50;2.30;;;23.50;92.70;;;;;;4976300;28;20434;-81
2022/07/14 10:52:49;;;;;;;8.50;2.70;;;23.30;94.40;;;;;;4968982;29;20445;-78
2022/07/14 10:55:19;;;;;;;4.37;2.83;;;23.90;96.30;;;;;;4968018;29;20437;-80
2022/07/14 10:58:04;;;;;;;2.90;2.60;;;23.90;91.80;;;;;;4967778;28;20469;-81
2022/07/14 11:00:55;;;;;;;4.07;2.73;;;24.30;90.70;;;;;;4975164;28;20490;-79
2022/07/14 11:03:24;;;;;;;5.43;2.80;;;24.50;92.50;;;;;;4978624;28;20405;-80
2022/07/14 11:06:03;;;;;;;6.27;2.67;;;24.90;92.10;;;;;;4973167;28;20469;-79
2022/07/14 11:08:29;;;;;;;8.60;2.30;;;25.40;92.50;;;;;;4977346;28;20479;-78
2022/07/14 11:10:57;;;;;;;5.47;2.33;;;25.50;91.80;;;;;;4980620;28;20472;-79
2022/07/14 11:13:23;;;;;;;2.97;2.50;;;25.70;91.80;;;;;;4966787;28;20434;-79
2022/07/14 11:15:56;;;;;;;3.30;2.20;;;26.10;92.00;;;;;;4960469;28;20972;-79
2022/07/14 11:18:34;;;;;;;2.80;2.60;;;26.80;89.80;;;;;;4960619;28;20198;-79
2022/07/14 11:21:17;;;;;;;2.67;2.43;;;27.10;86.50;;;;;;4960483;28;20430;-79
2022/07/14 11:23:46;;;;;;;2.77;2.40;;;26.90;85.50;;;;;;4957415;28;20513;-79
2022/07/14 11:26:40;;;;;;;2.90;2.50;;;26.90;85.50;;;;;;4987702;28;20414;-79
2022/07/14 11:29:09;;;;;;;5.57;2.43;;;26.40;87.60;;;;;;4996713;28;20424;-76
2022/07/14 11:31:49;;;;;;;7.70;2.93;;;25.70;85.80;;;;;;4989043;28;20822;-81
2022/07/14 11:37:12;;;;;;;2.93;2.50;;;24.30;91.80;;;;;;4999493;28;20966;-81
2022/07/14 11:39:39;;;;;;;4.57;2.53;;;24.70;90.60;;;;;;4997552;28;20456;-80
2022/07/14 11:42:09;;;;;;;5.27;2.67;;;24.80;94.10;;;;;;4989271;28;20437;-82
2022/07/14 11:44:41;;;;;;;4.53;2.23;;;25.20;92.40;;;;;;5000514;28;20495;-81
2022/07/14 11:47:17;;;;;;;4.83;2.50;;;25.40;92.40;;;;;;5003920;28;20412;-81
2022/07/14 11:49:58;;;;;;;3.77;3.13;;;24.80;89.80;;;;;;4988044;28;20790;-79
2022/07/14 11:52:31;;;;;;;2.57;2.37;;;25.00;91.10;;;;;;4979132;28;20440;-80
2022/07/14 11:54:59;;;;;;;4.57;2.70;;;26.30;94.20;;;;;;4993817;28;20424;-81
2022/07/14 11:57:26;;;;;;;4.40;2.47;;;27.70;88.70;;;;;;5002215;28;20416;-81
2022/07/14 11:59:53;;;;;;;4.03;2.77;;;28.20;84.30;;;;;;4981293;28;20441;-81
2022/07/14 12:02:20;;;;;;;8.90;2.50;;;28.50;82.80;;;;;;4964780;28;20425;-81
2022/07/14 12:04:52;;;;;;;8.50;3.10;;;28.00;86.00;;;;;;4967278;28;20430;-79
2022/07/14 12:07:20;;;;;;;5.10;2.53;;;25.50;88.70;;;;;;4984080;28;20412;-79
2022/07/14 12:09:46;;;;;;;5.60;3.33;;;26.00;90.90;;;;;;4999083;28;20523;-81
2022/07/14 12:12:12;;;;;;;9.93;2.87;;;26.60;84.80;;;;;;5003940;28;20456;-81
2022/07/14 12:15:07;;;;;;;3.40;2.67;;;27.20;93.70;;;;;;5001874;28;20415;-81
2022/07/14 12:17:46;;;;;;;4.40;2.47;;;28.50;84.10;;;;;;4990580;28;20184;-80
2022/07/14 12:20:13;;;;;;;4.57;2.60;;;28.80;84.60;;;;;;5000217;28;20404;-81
2022/07/14 12:22:43;;;;;;;5.67;3.00;;;29.10;82.20;;;;;;5001412;28;20952;-79
2022/07/14 12:25:27;;;;;;;4.90;2.50;;;29.20;83.10;;;;;;5003097;28;20412;-81
2022/07/14 12:27:54;;;;;;;3.63;2.60;;;28.60;79.50;;;;;;5002939;28;20422;-79
2022/07/14 12:30:20;;;;;;;9.70;2.60;;;28.10;85.50;;;;;;4986384;28;21000;-81
2022/07/14 12:32:50;;;;;;;3.70;2.50;;;28.60;82.80;;;;;;4983904;28;20450;-80
2022/07/14 12:35:15;;;;;;;5.20;2.50;;;29.00;82.60;;;;;;4964414;28;20418;-81
2022/07/14 12:37:41;;;;;;;4.27;2.67;;;28.60;85.60;;;;;;4967451;28;20417;-79
2022/07/14 12:40:07;;;;;;;4.60;2.70;;;28.60;83.50;;;;;;4983572;28;20197;-81
2022/07/14 12:42:33;;;;;;;3.93;3.00;;;28.10;81.70;;;;;;4977938;28;20197;-81
2022/07/14 12:45:00;;;;;;;8.00;2.93;;;27.80;82.50;;;;;;4961278;28;20418;-81
2022/07/14 12:47:26;;;;;;;2.73;2.27;;;27.40;84.30;;;;;;4960398;28;20177;-80
2022/07/14 12:49:52;;;;;;;3.60;2.20;;;27.30;86.40;;;;;;4959063;28;20410;-79
2022/07/14 12:52:17;;;;;;;3.43;2.43;;;27.40;85.90;;;;;;4989104;28;20500;-79
2022/07/14 12:54:43;;;;;;;4.40;2.60;;;27.10;87.50;;;;;;4957720;28;20684;-79
2022/07/14 12:57:18;;;;;;;4.97;2.60;;;27.10;87.10;;;;;;4958422;28;20202;-79
2022/07/14 12:59:44;;;;;;;2.87;2.47;;;27.20;86.90;;;;;;4960610;28;20205;-79
2022/07/14 13:02:10;;;;;;;9.67;2.93;;;27.10;88.30;;;;;;4976677;28;20440;-79
2022/07/14 13:04:43;;;;;;;4.20;2.30;;;26.60;86.40;;;;;;4975796;28;20185;-79
2022/07/14 13:07:27;;;;;;;5.00;2.30;;;25.90;85.90;;;;;;4976541;28;20409;-79
2022/07/14 13:10:11;;;;;;;6.20;2.50;;;26.30;88.70;;;;;;4986186;28;20491;-79
2022/07/14 13:12:41;;;;;;;6.93;2.50;;;26.70;88.60;;;;;;4995338;28;20478;-78
2022/07/14 13:15:10;;;;;;;7.37;2.90;;;27.20;88.60;;;;;;4995091;28;20422;-79
2022/07/14 13:18:00;;;;;;;3.83;2.40;;;27.50;85.20;;;;;;4996089;28;20404;-79
2022/07/14 13:20:45;;;;;;;7.10;2.83;;;27.50;85.80;;;;;;4996196;28;20880;-79
2022/07/14 13:23:36;;;;;;;3.80;3.20;;;27.30;82.50;;;;;;4997438;28;20446;-79
2022/07/14 13:26:10;;;;;;;2.67;2.20;;;27.10;86.40;;;;;;4997122;28;20503;-78
2022/07/14 13:28:45;;;;;;;6.77;2.50;;;27.20;84.00;;;;;;4997294;28;20499;-79
2022/07/14 13:31:17;;;;;;;3.13;2.83;;;27.50;84.60;;;;;;4998519;28;20435;-79
2022/07/14 13:33:48;;;;;;;5.63;2.40;;;27.70;83.20;;;;;;5000176;28;20419;-80
2022/07/14 13:36:14;;;;;;;4.43;2.60;;;27.20;83.20;;;;;;4999461;28;20474;-79
2022/07/14 13:38:41;;;;;;;5.43;2.63;;;27.20;87.90;;;;;;4998269;28;20460;-81
2022/07/14 13:41:09;;;;;;;2.73;2.53;;;26.60;87.00;;;;;;4983298;28;20479;-78
2022/07/14 13:43:35;;;;;;;3.53;2.57;;;25.90;89.20;;;;;;4988385;28;20496;-81
2022/07/14 13:46:00;;;;;;;3.37;2.67;;;25.60;88.50;;;;;;4986540;28;20445;-78
2022/07/14 13:48:26;;;;;;;2.30;2.10;;;25.20;90.80;;;;;;4979682;28;20177;-78
2022/07/14 13:53:37;;;;;;;3.97;2.27;;;25.10;92.50;;;;;;4980876;28;20209;-78
2022/07/14 13:56:04;;;;;;;6.90;2.53;;;24.80;91.80;;;;;;4981768;28;20413;-78
2022/07/14 13:58:29;;;;;;;2.70;2.17;;;24.50;92.60;;;;;;4985223;28;20208;-78
2022/07/14 14:00:55;;;;;;;8.17;2.50;;;24.30;93.40;;;;;;4986430;28;20933;-79
2022/07/14 14:03:24;;;;;;;4.27;2.30;;;24.40;93.70;;;;;;4990591;28;20177;-78
2022/07/14 14:06:01;;;;;;;2.67;2.20;;;24.20;92.80;;;;;;4981507;28;20649;-79
2022/07/14 14:08:29;;;;;;;4.50;2.40;;;24.30;94.60;;;;;;4987883;28;20770;-78
2022/07/14 14:10:56;;;;;;;5.97;2.50;;;24.00;95.80;;;;;;4992808;28;20506;-78
2022/07/14 14:13:23;;;;;;;5.17;2.50;;;23.90;94.40;;;;;;4995203;28;20444;-77
2022/07/14 14:15:49;;;;;;;3.07;2.17;;;23.60;94.30;;;;;;4996185;28;20411;-77
2022/07/14 14:18:16;;;;;;;9.43;5.03;;;23.40;96.30;;;;;;4978960;28;20465;-76
2022/07/14 14:20:42;;;;;;;8.07;3.00;;;23.30;96.30;;;;;;4986949;28;20425;-77
2022/07/14 14:23:07;;;;;;;6.13;2.37;;;23.30;96.30;;;;;;4987054;28;20432;-78
2022/07/14 14:25:34;;;;;;;10.73;2.17;;;23.10;96.30;;;;;;4984624;28;20171;-78
2022/07/14 14:28:00;;;;;;;10.03;2.60;;;22.90;96.30;;;;;;4984260;28;20174;-78
2022/07/14 14:30:26;;;;;;;3.43;2.13;;;22.80;96.30;;;;;;4990621;28;20437;-79
2022/07/14 14:32:52;;;;;;;6.53;2.13;;;22.90;96.30;;;;;;4986212;28;20847;-79
2022/07/14 14:35:17;;;;;;;6.60;2.00;;;23.00;96.30;;;;;;4986039;28;20233;-79
2022/07/14 14:37:43;;;;;;;9.43;2.27;;;22.90;96.30;;;;;;4984684;28;20196;-79
2022/07/14 14:40:09;;;;;;;2.63;2.40;;;22.70;96.30;;;;;;4975506;28;20218;-77
2022/07/14 14:42:35;;;;;;;5.97;2.70;;;22.60;96.30;;;;;;4989747;28;20284;-80
2022/07/14 14:45:00;;;;;;;3.60;2.20;;;22.60;96.30;;;;;;4972202;28;20462;-79
2022/07/14 14:47:26;;;;;;;5.80;2.30;;;22.60;96.30;;;;;;4989558;28;20253;-79
2022/07/14 14:49:55;;;;;;;4.30;2.40;;;22.70;96.30;;;;;;4990182;28;20185;-79
2022/07/14 14:52:28;;;;;;;5.50;2.43;;;22.60;96.30;;;;;;4989995;28;20212;-79
2022/07/14 14:54:54;;;;;;;3.17;2.20;;;22.40;96.30;;;;;;4997746;28;20527;-77
2022/07/14 14:57:20;;;;;;;4.17;2.67;;;22.20;96.30;;;;;;4992659;28;20425;-77
2022/07/14 14:59:46;;;;;;;5.57;2.27;;;22.10;96.30;;;;;;4983553;28;20568;-78
2022/07/14 15:02:12;;;;;;;7.70;2.33;;;22.00;96.30;;;;;;4986451;28;20436;-78
2022/07/14 15:04:38;;;;;;;8.37;2.90;;;22.00;96.30;;;;;;4983901;28;20424;-78
2022/07/14 15:07:04;;;;;;;6.37;2.43;;;22.00;96.30;;;;;;4969531;28;20433;-79
2022/07/14 15:09:30;;;;;;;4.97;2.30;;;22.00;96.30;;;;;;4985913;28;20515;-79
2022/07/14 15:11:56;;;;;;;4.77;2.57;;;21.80;96.30;;;;;;4987638;28;20218;-79
2022/07/14 15:14:21;;;;;;;5.50;2.20;;;21.70;96.30;;;;;;4975532;28;20206;-79
2022/07/14 15:16:47;;;;;;;9.50;2.33;;;21.60;96.30;;;;;;4975752;28;20206;-78
2022/07/14 15:19:14;;;;;;;2.80;2.50;;;21.50;96.30;;;;;;4975565;28;20202;-79
2022/07/14 15:21:40;;;;;;;3.73;2.50;;;21.40;96.30;;;;;;4975597;28;20186;-76
2022/07/14 15:24:06;;;;;;;4.13;2.27;;;21.30;96.30;;;;;;4975630;28;20409;-76
2022/07/14 15:26:32;;;;;;;9.17;2.53;;;21.10;96.30;;;;;;4975467;28;20402;-76
2022/07/14 15:28:57;;;;;;;3.63;2.50;;;20.90;96.30;;;;;;4968834;28;20210;-76
2022/07/14 15:31:23;;;;;;;3.80;2.57;;;20.80;96.30;;;;;;4984478;28;20213;-76
2022/07/14 15:33:49;;;;;;;6.57;2.40;;;20.60;96.30;;;;;;4978482;28;20182;-76
2022/07/14 15:36:15;;;;;;;10.83;2.73;;;20.30;96.30;;;;;;4983750;28;20209;-76
2022/07/14 15:41:25;;;;;;;5.57;2.60;;;20.20;96.30;;;;;;4993503;28;20459;-76
2022/07/14 15:43:51;;;;;;;22.87;3.40;;;20.00;96.30;;;;;;4993911;28;20893;-78
2022/07/14 15:46:17;;;;;;;13.63;3.23;;;19.90;96.30;;;;;;4991287;28;20248;-78
2022/07/14 15:48:42;;;;;;;7.40;3.30;;;19.80;96.30;;;;;;4973543;28;20175;-77
2022/07/14 15:51:09;;;;;;;7.03;3.13;;;19.50;96.30;;;;;;4975163;28;20198;-77
2022/07/14 15:53:34;;;;;;;8.40;2.67;;;19.40;96.30;;;;;;4983713;28;20297;-75
2022/07/14 15:56:00;;;;;;;5.63;2.87;;;19.20;96.30;;;;;;4972832;28;20915;-77
2022/07/14 15:58:26;;;;;;;6.10;3.17;;;19.00;96.30;;;;;;4965980;28;20201;-77
2022/07/14 16:00:51;;;;;;;13.30;3.90;;;19.00;96.30;;;;;;4976250;28;20201;-79
2022/07/14 16:03:17;;;;;;;7.73;3.00;;;18.80;96.30;;;;;;4973679;28;20191;-78
2022/07/14 16:05:44;;;;;;;6.73;3.30;;;18.70;96.30;;;;;;4965199;28;20190;-75
2022/07/14 16:08:09;;;;;;;6.07;3.40;;;18.60;96.30;;;;;;4968950;28;20434;-74
2022/07/14 16:10:39;;;;;;;17.23;4.93;;;18.30;96.30;;;;;;4977848;28;20969;-74
2022/07/14 16:13:05;;;;;;;10.33;3.60;;;18.10;96.30;;;;;;4974105;28;20183;-75
2022/07/14 16:15:31;;;;;;;5.80;3.37;;;18.10;96.30;;;;;;4955690;28;20426;-73
2022/07/14 16:17:57;;;;;;;5.60;3.30;;;18.10;96.30;;;;;;4955933;28;20525;-75
2022/07/14 16:20:22;;;;;;;6.60;3.60;;;18.00;96.30;;;;;;4969134;28;20209;-77
2022/07/14 17:09:17;;;;;;;8.83;3.50;;;20.70;96.30;;;;;;4972028;28;20469;-79
2022/07/14 17:11:42;;;;;;;5.67;3.07;;;20.80;96.30;;;;;;4973797;28;20481;-77
2022/07/14 17:14:10;;;;;;;10.90;3.60;;;21.10;96.30;;;;;;4974593;28;20236;-76
2022/07/14 17:16:35;;;;;;;5.73;3.33;;;21.10;96.30;;;;;;4976179;28;20177;-77
2022/07/14 17:19:01;;;;;;;7.63;3.80;;;20.80;96.30;;;;;;4980702;28;20450;-77
2022/07/14 17:21:26;;;;;;;6.83;3.33;;;20.60;96.30;;;;;;4992114;28;20244;-77
2022/07/14 17:23:52;;;;;;;8.40;4.37;;;20.60;96.30;;;;;;4992565;28;20264;-77
2022/07/14 17:26:19;;;;;;;5.90;3.13;;;20.40;96.30;;;;;;4992433;28;20185;-77
2022/07/14 17:28:45;;;;;;;4.80;3.77;;;20.30;96.30;;;;;;4986742;28;20421;-76
2022/07/14 17:31:11;;;;;;;5.87;3.63;;;20.50;96.30;;;;;;4990415;28;20433;-76
2022/07/14 17:33:37;;;;;;;7.63;3.23;;;20.20;96.30;;;;;;4992689;28;20415;-76
2022/07/14 17:36:04;;;;;;;4.80;3.50;;;20.10;96.30;;;;;;4992703;28;20174;-76
2022/07/14 17:38:31;;;;;;;3.93;3.53;;;19.90;96.30;;;;;;4991953;28;20812;-77
2022/07/14 17:40:58;;;;;;;7.77;3.50;;;19.80;96.30;;;;;;4992749;28;20437;-77
2022/07/14 17:43:27;;;;;;;9.73;3.93;;;19.70;96.30;;;;;;4992558;28;20409;-78
2022/07/14 17:45:53;;;;;;;9.07;4.20;;;19.50;96.30;;;;;;4991488;28;20425;-76
2022/07/14 17:48:19;;;;;;;5.00;3.83;;;19.60;96.30;;;;;;4983985;28;20424;-76
2022/07/14 17:50:45;;;;;;;6.10;4.10;;;19.60;96.30;;;;;;4985305;28;20892;-76
2022/07/14 17:53:12;;;;;;;5.67;3.93;;;19.60;96.30;;;;;;4983857;28;20173;-76
2022/07/14 17:55:38;;;;;;;6.27;4.00;;;19.60;96.30;;;;;;4992568;28;20413;-76
2022/07/14 17:58:04;;;;;;;7.37;3.50;;;19.30;96.30;;;;;;4991698;28;20912;-76
2022/07/14 18:00:30;;;;;;;5.57;4.03;;;19.00;96.30;;;;;;4976973;28;20432;-76
2022/07/14 18:02:56;;;;;;;10.30;4.07;;;18.80;96.30;;;;;;4984336;28;20788;-76
2022/07/14 18:05:22;;;;;;;6.27;4.47;;;18.60;96.30;;;;;;4982416;28;20177;-77
2022/07/14 18:07:47;;;;;;;9.13;4.30;;;18.30;96.30;;;;;;4989597;28;20279;-76